D/T METAR WX W/SPE G/SPE TEMP DEWP FEEL
31/01/23 06:50 EGWU 310650Z 24009KT 9999 BKN014 06/04 Q1024 NOSIG RMK GRN GRN 10.4mph 6°C 4°C 5.0°C
31/01/23 05:50 EGWU 310550Z AUTO 25012KT 9999 OVC051/// 06/04 Q1024 13.8mph 6°C 4°C 5.0°C
31/01/23 04:20 EGWU 310420Z AUTO 26010KT 9999 BKN043/// SCT062/// 06/03 Q1025 11.5mph 6°C 3°C 4.7°C
30/01/23 21:50 EGWU 302150Z AUTO 26003KT 9999 NCD 01/M01 Q1027 3.5mph 1°C -1°C -1.4°C
30/01/23 12:50 EGWU 301250Z 30010KT 9999 FEW027 BKN180 09/02 Q1025 NOSIG RMK BLU BLU 11.5mph 9°C 2°C 7.4°C
30/01/23 10:50 EGWU 301050Z 30009KT CAVOK 08/02 Q1025 NOSIG RMK BLU BLU 10.4mph 8°C 2°C 6.4°C
30/01/23 10:20 EGWU 301020Z 29008KT CAVOK 08/02 Q1025 NOSIG RMK BLU BLU 9.2mph 8°C 2°C 6.4°C
30/01/23 09:50 EGWU 300950Z 29010KT CAVOK 07/02 Q1024 NOSIG RMK BLU BLU 11.5mph 7°C 2°C 5.4°C
30/01/23 07:50 EGWU 300750Z 32005KT 9999 FEW040 05/01 Q1024 NOSIG RMK BLU BLU 5.8mph 5°C 1°C 3.1°C
30/01/23 06:50 EGWU 300650Z 30010KT 9999 FEW040 07/03 Q1023 NOSIG 11.5mph 7°C 3°C 5.7°C
09/01/23 06:20 EGWU 090620Z AUTO 25009KT 9999 NCD 05/04 Q0995 10.4mph 5°C 4°C 4.0°C
09/01/23 05:50 EGWU 090550Z AUTO 26007KT 9999 NCD 05/04 Q0994 8.1mph 5°C 4°C 4.0°C
09/01/23 05:20 EGWU 090520Z AUTO 25010KT 9999 NCD 05/04 Q0994 11.5mph 5°C 4°C 4.0°C
09/01/23 04:50 EGWU 090450Z AUTO 25011KT 9999 FEW092/// SCT100/// 05/04 Q0994 12.7mph 5°C 4°C 4.0°C
09/01/23 04:20 EGWU 090420Z AUTO 26010KT 9999 SCT081/// SCT100/// 05/04 Q0993 11.5mph 5°C 4°C 4.0°C
09/01/23 03:50 EGWU 090350Z AUTO 26009KT 9999 NCD 05/04 Q0993 10.4mph 5°C 4°C 4.0°C
09/01/23 03:20 EGWU 090320Z AUTO 26011KT 9999 NCD 05/04 Q0992 12.7mph 5°C 4°C 4.0°C
09/01/23 02:50 EGWU 090250Z AUTO 27011KT 9999 FEW083/// 06/04 Q0992 12.7mph 6°C 4°C 5.0°C
09/01/23 02:20 EGWU 090220Z AUTO 27011KT 9999 SCT072/// SCT210/// 06/05 Q0991 12.7mph 6°C 5°C 5.3°C
09/01/23 01:20 EGWU 090120Z AUTO 26008KT 9999 FEW007/// 06/05 Q0990 9.2mph 6°C 5°C 5.3°C
09/01/23 00:50 EGWU 090050Z AUTO 26005KT 9999 BKN008/// BKN027/// 06/05 Q0989 5.8mph 6°C 5°C 5.3°C
09/01/23 00:20 EGWU 090020Z AUTO 26005KT 9999 OVC011/// 06/05 Q0989 5.8mph 6°C 5°C 5.3°C
08/01/23 23:50 EGWU 082350Z AUTO 21004KT 9999 BKN015/// OVC033/// 06/05 Q0988 4.6mph 6°C 5°C 5.3°C
08/01/23 23:20 EGWU 082320Z AUTO 20003KT 9999 // BKN023/// OVC035/// 06/05 Q0988 3.5mph 6°C 5°C 5.3°C
08/01/23 22:50 EGWU 082250Z AUTO 19006KT 9999 // OVC021/// 06/05 Q0988 6.9mph 6°C 5°C 5.3°C
08/01/23 22:20 EGWU 082220Z AUTO 18006KT 7000 -RA FEW020/// SCT027/// BKN043/// 06/05 Q0988 -RA 6.9mph 6°C 5°C 5.3°C
08/01/23 21:50 EGWU 082150Z AUTO 19008KT 9999 OVC038/// 06/04 Q0988 9.2mph 6°C 4°C 5.0°C
08/01/23 20:20 EGWU 082020Z AUTO 20007KT 9999 FEW180/// 05/04 Q0989 8.1mph 5°C 4°C 4.0°C
08/01/23 19:20 EGWU 081920Z 21006KT CAVOK 05/04 Q0990 NOSIG RMK BLU BLU 6.9mph 5°C 4°C 4.0°C
08/01/23 18:50 EGWU 081850Z 22006KT CAVOK 05/04 Q0990 NOSIG RMK BLU BLU 6.9mph 5°C 4°C 4.0°C
08/01/23 18:20 EGWU 081820Z 24008KT 9999 FEW017 05/04 Q0990 NOSIG RMK BLU BLU 9.2mph 5°C 4°C 4.0°C
08/01/23 17:50 EGWU 081750Z 24010KT 9999 FEW018 BKN042 05/04 Q0990 NOSIG RMK BLU BLU 11.5mph 5°C 4°C 4.0°C
08/01/23 17:20 EGWU 081720Z 24009KT 9999 FEW012 BKN030 05/04 Q0989 TEMPO 7000 SHRA SCT015 RMK BLU TEMPO WHT 10.4mph 5°C 4°C 4.0°C
08/01/23 16:50 EGWU 081650Z 20010KT 4000 SHRA BKN012 07/05 Q0989 TEMPO 9999 NSW FEW012 RMK GRN TEMPO BLU SHRA 11.5mph 7°C 5°C 6.3°C
08/01/23 16:20 EGWU 081620Z 19010KT 9999 BKN030 BKN040 07/05 Q0989 TEMPO 7000 -RA SCT015 11.5mph 7°C 5°C 6.3°C
08/01/23 15:50 EGWU 081550Z 20010KT 9999 FEW013 BKN040 07/05 Q0989 TEMPO SCT013 RMK BLU TEMPO GRN 11.5mph 7°C 5°C 6.3°C
08/01/23 15:20 EGWU 081520Z AUTO 20011KT 9999 -RA FEW036/// SCT045/// OVC067/// 07/06 Q0989 -RA 12.7mph 7°C 6°C 6.6°C
08/01/23 14:20 EGWU 081420Z 23010KT 9999 -SHRA FEW010 SCT014CB BKN032 08/07 Q0989 TEMPO 4000 +SHRA RMK GRN TEMPO GRN -SHRA 11.5mph 8°C 7°C 8.0°C
08/01/23 13:50 EGWU 081350Z 20008KT 6000 -SHRA SCT013CB BKN037 08/07 Q0989 TEMPO 4000 +SHRA RMK GRN TEMPO GRN -SHRA 9.2mph 8°C 7°C 8.0°C
08/01/23 13:39 EGWU 081339Z 20006KT 9999 -SHRA FEW011 SCT016TCU BKN039 08/07 Q0989 TEMPO 7000 SHRA BKN014CB RMK WHT TEMPO GRN -SHRA 6.9mph 8°C 7°C 8.0°C
08/01/23 12:50 EGWU 081250Z 22008KT 9999 -SHRA FEW014TCU BKN027 BKN044 08/06 Q0990 TEMPO 6000 SHRA BKN015CB -SHRA 9.2mph 8°C 6°C 7.6°C
08/01/23 12:20 EGWU 081220Z 22014KT 9999 -SHRA FEW010 SCT017CB BKN035 07/06 Q0991 TEMPO 7000 SHRA BKN014CB -SHRA 16.1mph 7°C 6°C 6.6°C
08/01/23 11:50 EGWU 081150Z 25012KT 7000 SHRA FEW012 SCT017CB BKN040 08/06 Q0992 TEMPO 4000 +SHRA BKN014CB RMK WHT TEMPO GRN SHRA 13.8mph 8°C 6°C 7.6°C
08/01/23 11:28 EGWU 081128Z 22007G17KT 5000 SHRA BKN017TCU 08/07 Q0992 TEMPO 4000 +SHRA BKN014CB RMK WHT TEMPO GRN SHRA 8.1mph 19.6mph 8°C 7°C 8.0°C
08/01/23 10:56 EGWU 081056Z 26007KT 5000 SHRA BKN017 BKN038 07/06 Q0992 TEMPO SCT014 RMK WHT TEMPO GRN SHRA 8.1mph 7°C 6°C 6.6°C
08/01/23 10:20 EGWU 081020Z 20012KT 6000 SHRA BKN016 BKN024 08/06 Q0993 TEMPO 4000 +SHRA SHRA 13.8mph 8°C 6°C 7.6°C
08/01/23 09:50 EGWU 080950Z 20010KT 9999 -SHRA SCT016 08/06 Q0993 TEMPO 6000 SHRA RMK WHT TEMPO WHT -SHRA 11.5mph 8°C 6°C 7.6°C
08/01/23 09:20 EGWU 080920Z 19010KT 9999 -SHRA FEW015 BKN045 08/06 Q0993 TEMPO 6000 SHRA BKN015 -SHRA 11.5mph 8°C 6°C 7.6°C
08/01/23 08:50 EGWU 080850Z 20009KT 9999 FEW014 BKN047 07/06 Q0994 TEMPO 6000 SHRA BKN015 RMK BLU TEMPO WHT 10.4mph 7°C 6°C 6.6°C
08/01/23 08:20 EGWU 080820Z 20009KT 9999 FEW029 SCT051 07/05 Q0994 NOSIG RMK BLU BLU 10.4mph 7°C 5°C 6.3°C
08/01/23 07:50 EGWU 080750Z 21009KT 9999 BKN032 07/05 Q0994 NOSIG RMK BLU BLU 10.4mph 7°C 5°C 6.3°C
08/01/23 07:20 EGWU 080720Z AUTO 21010KT 9999 FEW038/// BKN045/// 07/05 Q0995 11.5mph 7°C 5°C 6.3°C
08/01/23 06:50 EGWU 080650Z 20011KT 9999 FEW033 SCT160 06/05 Q0995 NOSIG RMK BLU BLU 12.7mph 6°C 5°C 5.3°C
08/01/23 06:20 EGWU 080620Z AUTO 20010KT 9999 FEW023/// 07/05 Q0995 11.5mph 7°C 5°C 6.3°C
08/01/23 05:50 EGWU 080550Z AUTO 21010KT 9999 // SCT052/// 07/05 Q0995 11.5mph 7°C 5°C 6.3°C
08/01/23 05:20 EGWU 080520Z AUTO 20011KT 9999 // OVC041/// 07/05 Q0995 12.7mph 7°C 5°C 6.3°C
08/01/23 04:50 EGWU 080450Z AUTO 21012KT 9999 -RA SCT051/// SCT090/// 07/05 Q0995 -RA 13.8mph 7°C 5°C 6.3°C
08/01/23 04:20 EGWU 080420Z AUTO 21009KT 9999 // FEW048/// SCT095/// 07/05 Q0996 10.4mph 7°C 5°C 6.3°C
08/01/23 03:50 EGWU 080350Z AUTO 22013KT 9999 -RA OVC017/// 08/06 Q0996 -RA 15.0mph 8°C 6°C 7.6°C
08/01/23 03:20 EGWU 080320Z AUTO 20011KT 9999 FEW030/// 07/05 Q0996 12.7mph 7°C 5°C 6.3°C
08/01/23 02:50 EGWU 080250Z AUTO 20012KT 9999 // FEW032/// BKN140/// 08/06 Q0996 13.8mph 8°C 6°C 7.6°C
08/01/23 02:20 EGWU 080220Z AUTO 21009KT 9999 // BKN016/// BKN097/// 08/06 Q0996 10.4mph 8°C 6°C 7.6°C
08/01/23 01:50 EGWU 080150Z AUTO 22014G25KT 9999 RA OVC012/// 08/06 Q0996 RA 16.1mph 28.8mph 8°C 6°C 7.6°C
08/01/23 01:20 EGWU 080120Z AUTO 22015KT 9999 // FEW025/// 08/06 Q0996 17.3mph 8°C 6°C 7.6°C
08/01/23 00:20 EGWU 080020Z AUTO 21011KT 9999 FEW038/// 08/05 Q0996 12.7mph 8°C 5°C 7.3°C
07/01/23 23:50 EGWU 072350Z AUTO 20011KT 9999 FEW032/// 07/05 Q0997 12.7mph 7°C 5°C 6.3°C
07/01/23 23:20 EGWU 072320Z AUTO 20011KT 9999 NCD 07/05 Q0997 12.7mph 7°C 5°C 6.3°C
07/01/23 22:50 EGWU 072250Z AUTO 21012KT 9999 NCD 08/05 Q0997 13.8mph 8°C 5°C 7.3°C
07/01/23 22:20 EGWU 072220Z AUTO 22012KT 9999 NCD 07/05 Q0997 13.8mph 7°C 5°C 6.3°C
07/01/23 21:50 EGWU 072150Z AUTO 21011KT 9999 NCD 07/05 Q0997 12.7mph 7°C 5°C 6.3°C
07/01/23 21:20 EGWU 072120Z AUTO 21009KT 9999 NCD 07/05 Q0997 10.4mph 7°C 5°C 6.3°C
07/01/23 20:50 EGWU 072050Z AUTO 22012KT 9999 NCD 07/04 Q0997 13.8mph 7°C 4°C 6.0°C
07/01/23 20:20 EGWU 072020Z AUTO 22012KT 9999 // NCD 07/05 Q0997 13.8mph 7°C 5°C 6.3°C
07/01/23 19:50 EGWU 071950Z AUTO 22010KT 9999 // NCD 07/05 Q0997 11.5mph 7°C 5°C 6.3°C
07/01/23 19:20 EGWU 071920Z AUTO 23011KT 9999 -RA FEW012/// BKN016/// 07/05 Q0997 -RA 12.7mph 7°C 5°C 6.3°C
07/01/23 18:50 EGWU 071850Z AUTO 22013KT 9999 // BKN054/// BKN110/// 08/05 Q0996 15.0mph 8°C 5°C 7.3°C
07/01/23 18:20 EGWU 071820Z 23015KT CAVOK 08/05 Q0996 TEMPO 7000 SHRA RMK BLU TEMPO WHT 17.3mph 8°C 5°C 7.3°C
07/01/23 17:50 EGWU 071750Z 24020G31KT 9999 FEW020 BKN060 09/06 Q0996 TEMPO 7000 SHRA SCT018 RMK BLU TEMPO WHT 23.0mph 35.7mph 9°C 6°C 8.6°C
07/01/23 17:20 EGWU 071720Z 22014G24KT 9999 FEW025 BKN040 10/07 Q0995 TEMPO 6000 SHRA SCT018 RMK BLU TEMPO WHT 16.1mph 27.6mph 10°C 7°C 10.0°C
07/01/23 16:50 EGWU 071650Z 21010KT 9999 BKN016 10/09 Q0995 TEMPO FEW016 RMK WHT TEMPO BLU 11.5mph 10°C 9°C 10.8°C
07/01/23 16:25 EGWU 071625Z 21010KT 4000 SHRA OVC014 10/09 Q0995 TEMPO 9999 NSW FEW014 RMK GRN TEMPO BLU SHRA 11.5mph 10°C 9°C 10.8°C
07/01/23 15:50 EGWU 071550Z 19010KT 9999 SCT015 SCT030 11/09 Q0995 TEMPO FEW015 RMK WHT TEMPO BLU 11.5mph 11°C 9°C 11.8°C
07/01/23 15:20 EGWU 071520Z 21011KT 9999 SCT015 BKN030 11/09 Q0996 TEMPO FEW015 RMK WHT TEMPO BLU 12.7mph 11°C 9°C 11.8°C
07/01/23 14:50 EGWU 071450Z 22010KT 9999 SCT015 SCT030 11/10 Q0996 TEMPO FEW015 11.5mph 11°C 10°C 12.3°C
07/01/23 14:20 EGWU 071420Z 20012KT 9999 SCT009 BKN027 11/10 Q0996 TEMPO FEW010 RMK GRN TEMPO BLU 13.8mph 11°C 10°C 12.3°C
07/01/23 13:50 EGWU 071350Z 19014KT 6000 -RADZ BKN009 BKN017 10/09 Q0996 TEMPO 4000 RADZ RMK GRN TEMPO GRN -RA -DZ 16.1mph 10°C 9°C 10.8°C
07/01/23 12:50 EGWU 071250Z 20012KT 9000 -DZ BKN010 BKN020 11/09 Q0997 TEMPO 7000 -RADZ -DZ 13.8mph 11°C 9°C 11.8°C
07/01/23 12:20 EGWU 071220Z 20014KT 9000 -DZ SCT011 BKN020 11/09 Q0997 NOSIG RMK GRN GRN -DZ 16.1mph 11°C 9°C 11.8°C
07/01/23 11:50 EGWU 071150Z 20014G26KT 9999 BKN013 BKN020 11/09 Q0998 NOSIG RMK GRN GRN 16.1mph 29.9mph 11°C 9°C 11.8°C
07/01/23 11:20 EGWU 071120Z 20013KT 9999 -RADZ BKN011 BKN019 10/09 Q0998 TEMPO 7000 RMK GRN TEMPO GRN -RA -DZ 15.0mph 10°C 9°C 10.8°C
07/01/23 10:50 EGWU 071050Z 20015KT 9999 -RADZ BKN010 BKN020 10/09 Q0999 TEMPO 7000 RMK GRN TEMPO GRN -RA -DZ 17.3mph 10°C 9°C 10.8°C
07/01/23 10:20 EGWU 071020Z 19013G25KT 9999 -RADZ BKN013 BKN020 10/09 Q0999 TEMPO 7000 RMK GRN TEMPO GRN -RA -DZ 15.0mph 28.8mph 10°C 9°C 10.8°C
07/01/23 09:50 EGWU 070950Z 19015KT 9999 -RADZ BKN012 BKN020 10/09 Q0999 TEMPO 7000 RMK GRN TEMPO GRN -RA -DZ 17.3mph 10°C 9°C 10.8°C
07/01/23 09:20 EGWU 070920Z 19015KT 7000 -RADZ BKN012 BKN020 10/08 Q1000 TEMPO 4000 RADZ -RA -DZ 17.3mph 10°C 8°C 10.4°C
07/01/23 08:58 EGWU 070858Z 19015KT 7000 -RA BKN013 BKN023 10/08 Q1000 TEMPO 4000 RADZ RMK GRN TEMPO GRN -RA 17.3mph 10°C 8°C 10.4°C
07/01/23 08:20 EGWU 070820Z 19015G25KT 9999 -RA BKN017 BKN028 10/08 Q1000 TEMPO 7000 RADZ BKN014 RMK WHT TEMPO GRN -RA 17.3mph 28.8mph 10°C 8°C 10.4°C